sensor_id;sensor_type;location;lat;lon;timestamp;P1;durP1;ratioP1;P2;durP2;ratioP2
10082;SDS011;5080;48.528;8.078;2022-11-20T00:01:12;0.97;;;0.97;;
10082;SDS011;5080;48.528;8.078;2022-11-20T00:03:41;0.90;;;0.90;;
10082;SDS011;5080;48.528;8.078;2022-11-20T00:06:10;0.90;;;0.90;;
10082;SDS011;5080;48.528;8.078;2022-11-20T00:08:39;1.00;;;1.00;;
10082;SDS011;5080;48.528;8.078;2022-11-20T00:11:06;1.10;;;1.10;;
10082;SDS011;5080;48.528;8.078;2022-11-20T00:13:34;0.90;;;0.90;;
10082;SDS011;5080;48.528;8.078;2022-11-20T00:16:01;0.70;;;0.70;;
10082;SDS011;5080;48.528;8.078;2022-11-20T00:18:29;0.67;;;0.67;;
10082;SDS011;5080;48.528;8.078;2022-11-20T00:21:00;0.97;;;0.97;;
10082;SDS011;5080;48.528;8.078;2022-11-20T00:23:29;0.80;;;0.80;;
10082;SDS011;5080;48.528;8.078;2022-11-20T00:25:56;0.90;;;0.90;;
10082;SDS011;5080;48.528;8.078;2022-11-20T00:28:26;1.17;;;0.90;;
10082;SDS011;5080;48.528;8.078;2022-11-20T00:30:59;0.80;;;0.80;;
10082;SDS011;5080;48.528;8.078;2022-11-20T00:33:27;0.80;;;0.80;;
10082;SDS011;5080;48.528;8.078;2022-11-20T00:35:58;0.80;;;0.80;;
10082;SDS011;5080;48.528;8.078;2022-11-20T00:38:25;0.80;;;0.80;;
10082;SDS011;5080;48.528;8.078;2022-11-20T00:40:55;0.90;;;0.90;;
10082;SDS011;5080;48.528;8.078;2022-11-20T00:43:23;1.10;;;1.00;;
10082;SDS011;5080;48.528;8.078;2022-11-20T00:45:50;0.80;;;0.80;;
10082;SDS011;5080;48.528;8.078;2022-11-20T00:48:17;0.80;;;0.80;;
10082;SDS011;5080;48.528;8.078;2022-11-20T00:50:44;1.07;;;1.07;;
10082;SDS011;5080;48.528;8.078;2022-11-20T00:53:10;1.00;;;1.00;;
10082;SDS011;5080;48.528;8.078;2022-11-20T00:55:37;0.70;;;0.70;;
10082;SDS011;5080;48.528;8.078;2022-11-20T00:58:05;0.80;;;0.80;;
10082;SDS011;5080;48.528;8.078;2022-11-20T01:00:33;0.80;;;0.80;;
10082;SDS011;5080;48.528;8.078;2022-11-20T01:03:00;0.70;;;0.70;;
10082;SDS011;5080;48.528;8.078;2022-11-20T01:05:27;0.80;;;0.80;;
10082;SDS011;5080;48.528;8.078;2022-11-20T01:07:53;0.80;;;0.80;;
10082;SDS011;5080;48.528;8.078;2022-11-20T01:10:20;0.70;;;0.70;;
10082;SDS011;5080;48.528;8.078;2022-11-20T01:12:47;0.60;;;0.60;;
10082;SDS011;5080;48.528;8.078;2022-11-20T01:15:35;1.00;;;0.73;;
10082;SDS011;5080;48.528;8.078;2022-11-20T01:18:02;0.70;;;0.70;;
10082;SDS011;5080;48.528;8.078;2022-11-20T01:20:30;0.80;;;0.80;;
10082;SDS011;5080;48.528;8.078;2022-11-20T01:23:00;0.70;;;0.70;;
10082;SDS011;5080;48.528;8.078;2022-11-20T01:25:27;0.70;;;0.70;;
10082;SDS011;5080;48.528;8.078;2022-11-20T01:27:54;0.90;;;0.90;;
10082;SDS011;5080;48.528;8.078;2022-11-20T01:30:21;0.80;;;0.80;;
10082;SDS011;5080;48.528;8.078;2022-11-20T01:32:49;0.70;;;0.70;;
10082;SDS011;5080;48.528;8.078;2022-11-20T01:35:16;1.00;;;1.00;;
10082;SDS011;5080;48.528;8.078;2022-11-20T01:37:43;0.90;;;0.90;;
10082;SDS011;5080;48.528;8.078;2022-11-20T01:40:10;0.70;;;0.70;;
10082;SDS011;5080;48.528;8.078;2022-11-20T01:42:37;0.77;;;0.77;;
10082;SDS011;5080;48.528;8.078;2022-11-20T01:48:26;0.80;;;0.80;;
10082;SDS011;5080;48.528;8.078;2022-11-20T01:50:58;0.83;;;0.83;;
10082;SDS011;5080;48.528;8.078;2022-11-20T01:53:27;0.80;;;0.80;;
10082;SDS011;5080;48.528;8.078;2022-11-20T01:55:58;0.90;;;0.90;;
10082;SDS011;5080;48.528;8.078;2022-11-20T01:58:28;0.90;;;0.90;;
10082;SDS011;5080;48.528;8.078;2022-11-20T02:00:58;0.77;;;0.77;;
10082;SDS011;5080;48.528;8.078;2022-11-20T02:03:26;0.70;;;0.70;;
10082;SDS011;5080;48.528;8.078;2022-11-20T02:05:55;0.70;;;0.70;;
10082;SDS011;5080;48.528;8.078;2022-11-20T02:08:28;0.90;;;0.90;;
10082;SDS011;5080;48.528;8.078;2022-11-20T02:10:55;0.87;;;0.87;;
10082;SDS011;5080;48.528;8.078;2022-11-20T02:13:22;0.70;;;0.70;;
10082;SDS011;5080;48.528;8.078;2022-11-20T02:16:08;0.93;;;0.93;;
10082;SDS011;5080;48.528;8.078;2022-11-20T02:18:39;0.70;;;0.70;;
10082;SDS011;5080;48.528;8.078;2022-11-20T02:21:09;0.80;;;0.80;;
10082;SDS011;5080;48.528;8.078;2022-11-20T02:23:58;0.80;;;0.80;;
10082;SDS011;5080;48.528;8.078;2022-11-20T02:26:34;0.70;;;0.70;;
10082;SDS011;5080;48.528;8.078;2022-11-20T02:29:05;0.80;;;0.80;;
10082;SDS011;5080;48.528;8.078;2022-11-20T02:31:40;0.73;;;0.73;;
10082;SDS011;5080;48.528;8.078;2022-11-20T02:34:08;0.80;;;0.80;;
10082;SDS011;5080;48.528;8.078;2022-11-20T02:36:35;0.80;;;0.80;;
10082;SDS011;5080;48.528;8.078;2022-11-20T02:39:05;0.80;;;0.80;;
10082;SDS011;5080;48.528;8.078;2022-11-20T02:41:33;0.90;;;0.90;;
10082;SDS011;5080;48.528;8.078;2022-11-20T02:44:01;0.67;;;0.67;;
10082;SDS011;5080;48.528;8.078;2022-11-20T02:46:29;0.60;;;0.60;;
10082;SDS011;5080;48.528;8.078;2022-11-20T02:48:56;0.70;;;0.70;;
10082;SDS011;5080;48.528;8.078;2022-11-20T02:51:23;0.73;;;0.73;;
10082;SDS011;5080;48.528;8.078;2022-11-20T02:53:50;0.83;;;0.70;;
10082;SDS011;5080;48.528;8.078;2022-11-20T02:56:18;1.13;;;0.70;;
10082;SDS011;5080;48.528;8.078;2022-11-20T02:58:45;0.80;;;0.80;;
10082;SDS011;5080;48.528;8.078;2022-11-20T03:01:12;0.80;;;0.80;;
10082;SDS011;5080;48.528;8.078;2022-11-20T03:03:39;0.70;;;0.70;;
10082;SDS011;5080;48.528;8.078;2022-11-20T03:06:06;0.77;;;0.77;;
10082;SDS011;5080;48.528;8.078;2022-11-20T03:08:33;1.47;;;0.90;;
10082;SDS011;5080;48.528;8.078;2022-11-20T03:11:04;0.80;;;0.80;;
10082;SDS011;5080;48.528;8.078;2022-11-20T03:13:33;0.70;;;0.70;;
10082;SDS011;5080;48.528;8.078;2022-11-20T03:16:05;0.70;;;0.70;;
10082;SDS011;5080;48.528;8.078;2022-11-20T03:18:33;0.70;;;0.70;;
10082;SDS011;5080;48.528;8.078;2022-11-20T03:20:59;0.63;;;0.63;;
10082;SDS011;5080;48.528;8.078;2022-11-20T03:23:28;0.77;;;0.70;;
10082;SDS011;5080;48.528;8.078;2022-11-20T03:25:56;0.77;;;0.77;;
10082;SDS011;5080;48.528;8.078;2022-11-20T03:28:35;0.70;;;0.70;;
10082;SDS011;5080;48.528;8.078;2022-11-20T03:31:05;0.70;;;0.70;;
10082;SDS011;5080;48.528;8.078;2022-11-20T03:33:32;0.80;;;0.80;;
10082;SDS011;5080;48.528;8.078;2022-11-20T03:36:00;0.87;;;0.77;;
10082;SDS011;5080;48.528;8.078;2022-11-20T03:38:28;0.73;;;0.73;;
10082;SDS011;5080;48.528;8.078;2022-11-20T03:40:57;0.60;;;0.60;;
10082;SDS011;5080;48.528;8.078;2022-11-20T03:43:25;0.63;;;0.63;;
10082;SDS011;5080;48.528;8.078;2022-11-20T03:45:53;0.60;;;0.60;;
10082;SDS011;5080;48.528;8.078;2022-11-20T03:48:20;0.70;;;0.70;;
10082;SDS011;5080;48.528;8.078;2022-11-20T03:50:46;0.70;;;0.70;;
10082;SDS011;5080;48.528;8.078;2022-11-20T03:53:13;0.60;;;0.60;;
10082;SDS011;5080;48.528;8.078;2022-11-20T03:55:41;0.70;;;0.70;;
10082;SDS011;5080;48.528;8.078;2022-11-20T03:58:08;0.83;;;0.83;;
10082;SDS011;5080;48.528;8.078;2022-11-20T04:00:35;0.70;;;0.70;;
10082;SDS011;5080;48.528;8.078;2022-11-20T04:03:03;0.70;;;0.70;;
10082;SDS011;5080;48.528;8.078;2022-11-20T04:05:30;0.70;;;0.70;;
10082;SDS011;5080;48.528;8.078;2022-11-20T04:07:59;0.60;;;0.60;;
10082;SDS011;5080;48.528;8.078;2022-11-20T04:10:26;0.50;;;0.50;;
10082;SDS011;5080;48.528;8.078;2022-11-20T04:12:53;0.60;;;0.60;;
10082;SDS011;5080;48.528;8.078;2022-11-20T04:15:20;0.70;;;0.70;;
10082;SDS011;5080;48.528;8.078;2022-11-20T04:17:47;0.60;;;0.60;;
10082;SDS011;5080;48.528;8.078;2022-11-20T04:20:15;0.70;;;0.70;;
10082;SDS011;5080;48.528;8.078;2022-11-20T04:22:42;0.80;;;0.80;;
10082;SDS011;5080;48.528;8.078;2022-11-20T04:25:09;0.67;;;0.67;;
10082;SDS011;5080;48.528;8.078;2022-11-20T04:27:36;0.57;;;0.57;;
10082;SDS011;5080;48.528;8.078;2022-11-20T04:30:03;0.60;;;0.60;;
10082;SDS011;5080;48.528;8.078;2022-11-20T04:32:30;0.70;;;0.70;;
10082;SDS011;5080;48.528;8.078;2022-11-20T04:34:57;0.80;;;0.80;;
10082;SDS011;5080;48.528;8.078;2022-11-20T04:37:25;0.70;;;0.70;;
10082;SDS011;5080;48.528;8.078;2022-11-20T04:39:52;0.60;;;0.60;;
10082;SDS011;5080;48.528;8.078;2022-11-20T04:42:19;0.60;;;0.60;;
10082;SDS011;5080;48.528;8.078;2022-11-20T04:44:55;0.70;;;0.70;;
10082;SDS011;5080;48.528;8.078;2022-11-20T04:47:22;0.50;;;0.50;;
10082;SDS011;5080;48.528;8.078;2022-11-20T04:49:49;0.50;;;0.50;;
10082;SDS011;5080;48.528;8.078;2022-11-20T04:52:16;0.53;;;0.53;;
10082;SDS011;5080;48.528;8.078;2022-11-20T04:54:44;0.50;;;0.50;;
10082;SDS011;5080;48.528;8.078;2022-11-20T04:57:12;0.60;;;0.60;;
10082;SDS011;5080;48.528;8.078;2022-11-20T04:59:40;0.63;;;0.63;;
10082;SDS011;5080;48.528;8.078;2022-11-20T05:02:07;0.70;;;0.70;;
10082;SDS011;5080;48.528;8.078;2022-11-20T05:04:34;0.67;;;0.67;;
10082;SDS011;5080;48.528;8.078;2022-11-20T05:07:01;0.63;;;0.60;;
10082;SDS011;5080;48.528;8.078;2022-11-20T05:09:28;0.50;;;0.50;;
10082;SDS011;5080;48.528;8.078;2022-11-20T05:11:56;0.80;;;0.80;;
10082;SDS011;5080;48.528;8.078;2022-11-20T05:14:23;0.50;;;0.50;;
10082;SDS011;5080;48.528;8.078;2022-11-20T05:16:50;0.67;;;0.67;;
10082;SDS011;5080;48.528;8.078;2022-11-20T05:19:17;0.60;;;0.60;;
10082;SDS011;5080;48.528;8.078;2022-11-20T05:21:44;0.60;;;0.60;;
10082;SDS011;5080;48.528;8.078;2022-11-20T05:24:10;0.73;;;0.73;;
10082;SDS011;5080;48.528;8.078;2022-11-20T05:26:37;0.80;;;0.80;;
10082;SDS011;5080;48.528;8.078;2022-11-20T05:29:05;0.70;;;0.70;;
10082;SDS011;5080;48.528;8.078;2022-11-20T05:31:32;0.60;;;0.60;;
10082;SDS011;5080;48.528;8.078;2022-11-20T05:33:59;0.80;;;0.80;;
10082;SDS011;5080;48.528;8.078;2022-11-20T05:36:26;0.47;;;0.47;;
10082;SDS011;5080;48.528;8.078;2022-11-20T05:38:53;0.60;;;0.60;;
10082;SDS011;5080;48.528;8.078;2022-11-20T05:41:20;0.50;;;0.50;;
10082;SDS011;5080;48.528;8.078;2022-11-20T05:43:47;0.50;;;0.50;;
10082;SDS011;5080;48.528;8.078;2022-11-20T05:46:17;0.50;;;0.50;;
10082;SDS011;5080;48.528;8.078;2022-11-20T05:48:45;0.67;;;0.67;;
10082;SDS011;5080;48.528;8.078;2022-11-20T05:51:14;0.60;;;0.60;;
10082;SDS011;5080;48.528;8.078;2022-11-20T05:53:42;0.60;;;0.60;;
10082;SDS011;5080;48.528;8.078;2022-11-20T05:56:10;0.97;;;0.50;;
10082;SDS011;5080;48.528;8.078;2022-11-20T05:58:38;0.50;;;0.50;;
10082;SDS011;5080;48.528;8.078;2022-11-20T06:01:06;0.43;;;0.43;;
10082;SDS011;5080;48.528;8.078;2022-11-20T06:03:37;0.53;;;0.53;;
10082;SDS011;5080;48.528;8.078;2022-11-20T06:06:05;0.60;;;0.60;;
10082;SDS011;5080;48.528;8.078;2022-11-20T06:08:32;0.70;;;0.70;;
10082;SDS011;5080;48.528;8.078;2022-11-20T06:11:02;0.70;;;0.70;;
10082;SDS011;5080;48.528;8.078;2022-11-20T06:13:30;0.50;;;0.50;;
10082;SDS011;5080;48.528;8.078;2022-11-20T06:15:57;0.60;;;0.60;;
10082;SDS011;5080;48.528;8.078;2022-11-20T06:18:25;0.50;;;0.50;;
10082;SDS011;5080;48.528;8.078;2022-11-20T06:20:59;0.40;;;0.40;;
10082;SDS011;5080;48.528;8.078;2022-11-20T06:23:28;0.63;;;0.63;;
10082;SDS011;5080;48.528;8.078;2022-11-20T06:25:55;0.50;;;0.50;;
10082;SDS011;5080;48.528;8.078;2022-11-20T06:28:22;0.60;;;0.60;;
10082;SDS011;5080;48.528;8.078;2022-11-20T06:30:49;0.53;;;0.53;;
10082;SDS011;5080;48.528;8.078;2022-11-20T06:33:16;0.40;;;0.40;;
10082;SDS011;5080;48.528;8.078;2022-11-20T06:35:43;0.53;;;0.53;;
10082;SDS011;5080;48.528;8.078;2022-11-20T06:38:11;0.87;;;0.87;;
10082;SDS011;5080;48.528;8.078;2022-11-20T06:40:39;0.90;;;0.90;;
10082;SDS011;5080;48.528;8.078;2022-11-20T06:43:06;0.77;;;0.70;;
10082;SDS011;5080;48.528;8.078;2022-11-20T06:45:33;0.60;;;0.60;;
10082;SDS011;5080;48.528;8.078;2022-11-20T06:48:00;0.63;;;0.63;;
10082;SDS011;5080;48.528;8.078;2022-11-20T06:50:27;0.60;;;0.60;;
10082;SDS011;5080;48.528;8.078;2022-11-20T06:52:53;0.60;;;0.60;;
10082;SDS011;5080;48.528;8.078;2022-11-20T06:55:22;0.53;;;0.53;;
10082;SDS011;5080;48.528;8.078;2022-11-20T06:57:50;0.40;;;0.40;;
10082;SDS011;5080;48.528;8.078;2022-11-20T07:00:17;0.50;;;0.50;;
10082;SDS011;5080;48.528;8.078;2022-11-20T07:02:44;0.70;;;0.70;;
10082;SDS011;5080;48.528;8.078;2022-11-20T07:05:11;0.50;;;0.50;;
10082;SDS011;5080;48.528;8.078;2022-11-20T07:07:37;0.50;;;0.50;;
10082;SDS011;5080;48.528;8.078;2022-11-20T07:10:05;0.50;;;0.50;;
10082;SDS011;5080;48.528;8.078;2022-11-20T07:12:33;0.70;;;0.70;;
10082;SDS011;5080;48.528;8.078;2022-11-20T07:15:00;0.53;;;0.53;;
10082;SDS011;5080;48.528;8.078;2022-11-20T07:17:27;0.60;;;0.60;;
10082;SDS011;5080;48.528;8.078;2022-11-20T07:19:54;0.60;;;0.60;;
10082;SDS011;5080;48.528;8.078;2022-11-20T07:22:21;0.80;;;0.80;;
10082;SDS011;5080;48.528;8.078;2022-11-20T07:24:48;0.80;;;0.80;;
10082;SDS011;5080;48.528;8.078;2022-11-20T07:27:14;0.70;;;0.70;;
10082;SDS011;5080;48.528;8.078;2022-11-20T07:29:43;0.70;;;0.70;;
10082;SDS011;5080;48.528;8.078;2022-11-20T07:32:09;0.80;;;0.80;;
10082;SDS011;5080;48.528;8.078;2022-11-20T07:34:36;0.40;;;0.40;;
10082;SDS011;5080;48.528;8.078;2022-11-20T07:37:03;0.50;;;0.50;;
10082;SDS011;5080;48.528;8.078;2022-11-20T07:39:30;0.50;;;0.50;;
10082;SDS011;5080;48.528;8.078;2022-11-20T07:41:57;0.60;;;0.60;;
10082;SDS011;5080;48.528;8.078;2022-11-20T07:44:24;0.70;;;0.70;;
10082;SDS011;5080;48.528;8.078;2022-11-20T07:46:52;0.80;;;0.80;;
10082;SDS011;5080;48.528;8.078;2022-11-20T07:49:19;0.70;;;0.70;;
10082;SDS011;5080;48.528;8.078;2022-11-20T07:51:46;0.60;;;0.60;;
10082;SDS011;5080;48.528;8.078;2022-11-20T07:54:12;0.70;;;0.70;;
10082;SDS011;5080;48.528;8.078;2022-11-20T07:56:39;0.67;;;0.67;;
10082;SDS011;5080;48.528;8.078;2022-11-20T07:59:06;0.53;;;0.53;;
10082;SDS011;5080;48.528;8.078;2022-11-20T08:01:33;0.70;;;0.70;;
10082;SDS011;5080;48.528;8.078;2022-11-20T08:04:01;0.50;;;0.50;;
10082;SDS011;5080;48.528;8.078;2022-11-20T08:06:28;0.33;;;0.33;;
10082;SDS011;5080;48.528;8.078;2022-11-20T08:08:55;0.50;;;0.50;;
10082;SDS011;5080;48.528;8.078;2022-11-20T08:11:23;0.40;;;0.40;;
10082;SDS011;5080;48.528;8.078;2022-11-20T08:14:07;0.63;;;0.63;;
10082;SDS011;5080;48.528;8.078;2022-11-20T08:16:41;0.40;;;0.40;;
10082;SDS011;5080;48.528;8.078;2022-11-20T08:19:10;0.50;;;0.50;;
10082;SDS011;5080;48.528;8.078;2022-11-20T08:21:37;0.60;;;0.60;;
10082;SDS011;5080;48.528;8.078;2022-11-20T08:24:05;0.50;;;0.50;;
10082;SDS011;5080;48.528;8.078;2022-11-20T08:26:33;0.50;;;0.50;;
10082;SDS011;5080;48.528;8.078;2022-11-20T08:29:00;0.53;;;0.50;;
10082;SDS011;5080;48.528;8.078;2022-11-20T08:31:27;0.40;;;0.40;;
10082;SDS011;5080;48.528;8.078;2022-11-20T08:33:54;0.60;;;0.60;;
10082;SDS011;5080;48.528;8.078;2022-11-20T08:36:23;0.40;;;0.40;;
10082;SDS011;5080;48.528;8.078;2022-11-20T08:38:51;0.50;;;0.50;;
10082;SDS011;5080;48.528;8.078;2022-11-20T08:41:19;0.40;;;0.40;;
10082;SDS011;5080;48.528;8.078;2022-11-20T08:43:54;0.70;;;0.70;;
10082;SDS011;5080;48.528;8.078;2022-11-20T08:46:22;0.60;;;0.60;;
10082;SDS011;5080;48.528;8.078;2022-11-20T08:48:50;0.60;;;0.60;;
10082;SDS011;5080;48.528;8.078;2022-11-20T08:51:17;0.50;;;0.50;;
10082;SDS011;5080;48.528;8.078;2022-11-20T08:53:46;0.63;;;0.57;;
10082;SDS011;5080;48.528;8.078;2022-11-20T08:56:14;0.60;;;0.60;;
10082;SDS011;5080;48.528;8.078;2022-11-20T08:58:41;0.70;;;0.70;;
10082;SDS011;5080;48.528;8.078;2022-11-20T09:01:08;0.40;;;0.40;;
10082;SDS011;5080;48.528;8.078;2022-11-20T09:03:35;0.80;;;0.80;;
10082;SDS011;5080;48.528;8.078;2022-11-20T09:06:03;0.67;;;0.67;;
10082;SDS011;5080;48.528;8.078;2022-11-20T09:08:31;0.60;;;0.60;;
10082;SDS011;5080;48.528;8.078;2022-11-20T09:11:00;0.50;;;0.50;;
10082;SDS011;5080;48.528;8.078;2022-11-20T09:13:28;0.47;;;0.47;;
10082;SDS011;5080;48.528;8.078;2022-11-20T09:15:56;0.77;;;0.77;;
10082;SDS011;5080;48.528;8.078;2022-11-20T09:18:25;0.70;;;0.70;;
10082;SDS011;5080;48.528;8.078;2022-11-20T09:20:55;0.60;;;0.60;;
10082;SDS011;5080;48.528;8.078;2022-11-20T09:23:23;0.50;;;0.50;;
10082;SDS011;5080;48.528;8.078;2022-11-20T09:25:50;0.60;;;0.60;;
10082;SDS011;5080;48.528;8.078;2022-11-20T09:28:19;0.70;;;0.70;;
10082;SDS011;5080;48.528;8.078;2022-11-20T09:30:45;0.50;;;0.50;;
10082;SDS011;5080;48.528;8.078;2022-11-20T09:33:12;0.67;;;0.67;;
10082;SDS011;5080;48.528;8.078;2022-11-20T09:35:39;0.70;;;0.70;;
10082;SDS011;5080;48.528;8.078;2022-11-20T09:38:08;0.60;;;0.60;;
10082;SDS011;5080;48.528;8.078;2022-11-20T09:40:37;0.70;;;0.70;;
10082;SDS011;5080;48.528;8.078;2022-11-20T09:43:07;0.60;;;0.60;;
10082;SDS011;5080;48.528;8.078;2022-11-20T09:45:47;0.60;;;0.60;;
10082;SDS011;5080;48.528;8.078;2022-11-20T09:51:29;0.70;;;0.70;;
10082;SDS011;5080;48.528;8.078;2022-11-20T09:54:09;0.60;;;0.60;;
10082;SDS011;5080;48.528;8.078;2022-11-20T09:56:42;0.70;;;0.70;;
10082;SDS011;5080;48.528;8.078;2022-11-20T09:59:15;0.77;;;0.77;;
10082;SDS011;5080;48.528;8.078;2022-11-20T10:01:57;0.70;;;0.70;;
10082;SDS011;5080;48.528;8.078;2022-11-20T10:04:26;0.70;;;0.70;;
10082;SDS011;5080;48.528;8.078;2022-11-20T10:07:00;0.63;;;0.63;;
10082;SDS011;5080;48.528;8.078;2022-11-20T10:09:31;0.80;;;0.80;;
10082;SDS011;5080;48.528;8.078;2022-11-20T10:12:04;0.80;;;0.80;;
10082;SDS011;5080;48.528;8.078;2022-11-20T10:14:41;0.70;;;0.70;;
10082;SDS011;5080;48.528;8.078;2022-11-20T10:17:22;0.77;;;0.77;;
10082;SDS011;5080;48.528;8.078;2022-11-20T10:20:02;0.67;;;0.67;;
10082;SDS011;5080;48.528;8.078;2022-11-20T10:22:44;0.70;;;0.70;;
10082;SDS011;5080;48.528;8.078;2022-11-20T10:25:23;1.13;;;0.73;;
10082;SDS011;5080;48.528;8.078;2022-11-20T10:27:58;0.90;;;0.90;;
10082;SDS011;5080;48.528;8.078;2022-11-20T10:30:48;0.60;;;0.60;;
10082;SDS011;5080;48.528;8.078;2022-11-20T10:33:23;0.80;;;0.80;;
10082;SDS011;5080;48.528;8.078;2022-11-20T10:35:54;0.90;;;0.90;;
10082;SDS011;5080;48.528;8.078;2022-11-20T10:38:30;0.93;;;0.70;;
10082;SDS011;5080;48.528;8.078;2022-11-20T10:41:02;0.60;;;0.60;;
10082;SDS011;5080;48.528;8.078;2022-11-20T10:43:49;0.50;;;0.50;;
10082;SDS011;5080;48.528;8.078;2022-11-20T10:46:20;0.80;;;0.80;;
10082;SDS011;5080;48.528;8.078;2022-11-20T10:48:49;0.70;;;0.70;;
10082;SDS011;5080;48.528;8.078;2022-11-20T10:51:18;0.70;;;0.70;;
10082;SDS011;5080;48.528;8.078;2022-11-20T10:56:45;0.60;;;0.60;;
10082;SDS011;5080;48.528;8.078;2022-11-20T11:02:18;0.80;;;0.80;;
10082;SDS011;5080;48.528;8.078;2022-11-20T11:04:47;0.90;;;0.90;;
10082;SDS011;5080;48.528;8.078;2022-11-20T11:07:16;0.90;;;0.90;;
10082;SDS011;5080;48.528;8.078;2022-11-20T11:09:47;0.73;;;0.73;;
10082;SDS011;5080;48.528;8.078;2022-11-20T11:12:15;0.70;;;0.70;;
10082;SDS011;5080;48.528;8.078;2022-11-20T11:14:44;0.63;;;0.63;;
10082;SDS011;5080;48.528;8.078;2022-11-20T11:17:22;0.47;;;0.47;;
10082;SDS011;5080;48.528;8.078;2022-11-20T11:19:58;0.70;;;0.70;;
10082;SDS011;5080;48.528;8.078;2022-11-20T11:22:31;0.50;;;0.50;;
10082;SDS011;5080;48.528;8.078;2022-11-20T11:24:59;0.80;;;0.80;;
10082;SDS011;5080;48.528;8.078;2022-11-20T11:27:27;0.53;;;0.53;;
10082;SDS011;5080;48.528;8.078;2022-11-20T11:30:11;0.70;;;0.70;;
10082;SDS011;5080;48.528;8.078;2022-11-20T11:32:40;0.60;;;0.60;;
10082;SDS011;5080;48.528;8.078;2022-11-20T11:35:18;1.17;;;1.17;;
10082;SDS011;5080;48.528;8.078;2022-11-20T11:37:50;1.10;;;1.10;;
10082;SDS011;5080;48.528;8.078;2022-11-20T11:40:20;0.70;;;0.70;;
10082;SDS011;5080;48.528;8.078;2022-11-20T11:42:51;0.80;;;0.80;;
10082;SDS011;5080;48.528;8.078;2022-11-20T11:45:22;0.60;;;0.60;;
10082;SDS011;5080;48.528;8.078;2022-11-20T11:47:49;0.70;;;0.67;;
10082;SDS011;5080;48.528;8.078;2022-11-20T11:50:20;0.83;;;0.77;;
10082;SDS011;5080;48.528;8.078;2022-11-20T11:52:50;1.03;;;0.80;;
10082;SDS011;5080;48.528;8.078;2022-11-20T11:55:29;0.80;;;0.80;;
10082;SDS011;5080;48.528;8.078;2022-11-20T11:58:02;0.83;;;0.80;;
10082;SDS011;5080;48.528;8.078;2022-11-20T12:00:37;0.70;;;0.70;;
10082;SDS011;5080;48.528;8.078;2022-11-20T12:03:09;0.80;;;0.80;;
10082;SDS011;5080;48.528;8.078;2022-11-20T12:05:43;1.03;;;1.03;;
10082;SDS011;5080;48.528;8.078;2022-11-20T12:08:14;1.17;;;1.17;;
10082;SDS011;5080;48.528;8.078;2022-11-20T12:10:48;1.10;;;1.10;;
10082;SDS011;5080;48.528;8.078;2022-11-20T12:13:25;1.10;;;1.10;;
10082;SDS011;5080;48.528;8.078;2022-11-20T12:16:07;1.20;;;1.20;;
10082;SDS011;5080;48.528;8.078;2022-11-20T12:18:39;1.30;;;1.30;;
10082;SDS011;5080;48.528;8.078;2022-11-20T12:21:11;0.80;;;0.80;;
10082;SDS011;5080;48.528;8.078;2022-11-20T12:23:50;0.77;;;0.77;;
10082;SDS011;5080;48.528;8.078;2022-11-20T12:26:29;0.63;;;0.63;;
10082;SDS011;5080;48.528;8.078;2022-11-20T12:29:10;0.80;;;0.80;;
10082;SDS011;5080;48.528;8.078;2022-11-20T12:31:56;0.73;;;0.73;;
10082;SDS011;5080;48.528;8.078;2022-11-20T12:34:43;0.70;;;0.70;;
10082;SDS011;5080;48.528;8.078;2022-11-20T12:37:24;0.60;;;0.60;;
10082;SDS011;5080;48.528;8.078;2022-11-20T12:40:01;1.03;;;1.03;;
10082;SDS011;5080;48.528;8.078;2022-11-20T12:42:39;0.67;;;0.67;;
10082;SDS011;5080;48.528;8.078;2022-11-20T12:45:49;0.73;;;0.50;;
10082;SDS011;5080;48.528;8.078;2022-11-20T12:48:41;0.70;;;0.70;;
10082;SDS011;5080;48.528;8.078;2022-11-20T12:51:17;0.70;;;0.70;;
10082;SDS011;5080;48.528;8.078;2022-11-20T12:54:09;0.70;;;0.70;;
10082;SDS011;5080;48.528;8.078;2022-11-20T12:57:00;0.60;;;0.60;;
10082;SDS011;5080;48.528;8.078;2022-11-20T12:59:45;0.70;;;0.70;;
10082;SDS011;5080;48.528;8.078;2022-11-20T13:02:27;0.53;;;0.53;;
10082;SDS011;5080;48.528;8.078;2022-11-20T13:05:05;0.40;;;0.40;;
10082;SDS011;5080;48.528;8.078;2022-11-20T13:07:50;0.57;;;0.57;;
10082;SDS011;5080;48.528;8.078;2022-11-20T13:10:23;0.60;;;0.60;;
10082;SDS011;5080;48.528;8.078;2022-11-20T13:12:58;1.27;;;1.20;;
10082;SDS011;5080;48.528;8.078;2022-11-20T13:15:33;0.67;;;0.67;;
10082;SDS011;5080;48.528;8.078;2022-11-20T13:18:07;0.70;;;0.70;;
10082;SDS011;5080;48.528;8.078;2022-11-20T13:20:36;0.73;;;0.73;;
10082;SDS011;5080;48.528;8.078;2022-11-20T13:23:08;0.67;;;0.67;;
10082;SDS011;5080;48.528;8.078;2022-11-20T13:25:37;0.43;;;0.43;;
10082;SDS011;5080;48.528;8.078;2022-11-20T13:30:54;0.80;;;0.80;;
10082;SDS011;5080;48.528;8.078;2022-11-20T13:33:23;0.53;;;0.53;;
10082;SDS011;5080;48.528;8.078;2022-11-20T13:35:57;0.67;;;0.67;;
10082;SDS011;5080;48.528;8.078;2022-11-20T13:38:25;0.70;;;0.70;;
10082;SDS011;5080;48.528;8.078;2022-11-20T13:40:54;0.47;;;0.47;;
10082;SDS011;5080;48.528;8.078;2022-11-20T13:43:23;0.60;;;0.60;;
10082;SDS011;5080;48.528;8.078;2022-11-20T13:45:55;0.50;;;0.50;;
10082;SDS011;5080;48.528;8.078;2022-11-20T13:48:24;0.53;;;0.53;;
10082;SDS011;5080;48.528;8.078;2022-11-20T13:50:56;0.70;;;0.70;;
10082;SDS011;5080;48.528;8.078;2022-11-20T13:53:36;1.00;;;0.53;;
10082;SDS011;5080;48.528;8.078;2022-11-20T13:56:21;0.50;;;0.50;;
10082;SDS011;5080;48.528;8.078;2022-11-20T13:58:58;0.57;;;0.57;;
10082;SDS011;5080;48.528;8.078;2022-11-20T14:01:31;0.80;;;0.80;;
10082;SDS011;5080;48.528;8.078;2022-11-20T14:03:59;0.50;;;0.50;;
10082;SDS011;5080;48.528;8.078;2022-11-20T14:06:33;0.80;;;0.80;;
10082;SDS011;5080;48.528;8.078;2022-11-20T14:09:05;0.57;;;0.57;;
10082;SDS011;5080;48.528;8.078;2022-11-20T14:11:45;0.60;;;0.60;;
10082;SDS011;5080;48.528;8.078;2022-11-20T14:14:13;0.30;;;0.30;;
10082;SDS011;5080;48.528;8.078;2022-11-20T14:16:42;1.50;;;0.57;;
10082;SDS011;5080;48.528;8.078;2022-11-20T14:19:19;0.93;;;0.80;;
10082;SDS011;5080;48.528;8.078;2022-11-20T14:21:52;0.77;;;0.77;;
10082;SDS011;5080;48.528;8.078;2022-11-20T14:24:21;0.90;;;0.90;;
10082;SDS011;5080;48.528;8.078;2022-11-20T14:26:51;0.60;;;0.60;;
10082;SDS011;5080;48.528;8.078;2022-11-20T14:29:18;0.80;;;0.80;;
10082;SDS011;5080;48.528;8.078;2022-11-20T14:31:47;0.87;;;0.87;;
10082;SDS011;5080;48.528;8.078;2022-11-20T14:34:18;0.97;;;0.97;;
10082;SDS011;5080;48.528;8.078;2022-11-20T14:36:47;0.60;;;0.60;;
10082;SDS011;5080;48.528;8.078;2022-11-20T14:39:20;0.53;;;0.53;;
10082;SDS011;5080;48.528;8.078;2022-11-20T14:41:51;0.70;;;0.70;;
10082;SDS011;5080;48.528;8.078;2022-11-20T14:44:19;0.90;;;0.90;;
10082;SDS011;5080;48.528;8.078;2022-11-20T14:46:49;1.40;;;1.30;;
10082;SDS011;5080;48.528;8.078;2022-11-20T14:49:17;1.50;;;1.40;;
10082;SDS011;5080;48.528;8.078;2022-11-20T14:51:44;1.00;;;1.00;;
10082;SDS011;5080;48.528;8.078;2022-11-20T14:54:12;1.20;;;1.20;;
10082;SDS011;5080;48.528;8.078;2022-11-20T14:56:41;1.40;;;1.33;;
10082;SDS011;5080;48.528;8.078;2022-11-20T14:59:10;1.50;;;1.40;;
10082;SDS011;5080;48.528;8.078;2022-11-20T15:01:37;1.10;;;1.10;;
10082;SDS011;5080;48.528;8.078;2022-11-20T15:04:05;1.10;;;1.10;;
10082;SDS011;5080;48.528;8.078;2022-11-20T15:06:34;1.00;;;1.00;;
10082;SDS011;5080;48.528;8.078;2022-11-20T15:09:02;0.97;;;0.97;;
10082;SDS011;5080;48.528;8.078;2022-11-20T15:11:30;1.10;;;1.10;;
10082;SDS011;5080;48.528;8.078;2022-11-20T15:14:01;0.77;;;0.77;;
10082;SDS011;5080;48.528;8.078;2022-11-20T15:16:32;0.70;;;0.70;;
10082;SDS011;5080;48.528;8.078;2022-11-20T15:18:59;0.80;;;0.80;;
10082;SDS011;5080;48.528;8.078;2022-11-20T15:21:43;0.67;;;0.67;;
10082;SDS011;5080;48.528;8.078;2022-11-20T15:24:10;0.80;;;0.80;;
10082;SDS011;5080;48.528;8.078;2022-11-20T15:26:37;1.43;;;1.33;;
10082;SDS011;5080;48.528;8.078;2022-11-20T15:29:07;1.10;;;1.10;;
10082;SDS011;5080;48.528;8.078;2022-11-20T15:31:37;0.93;;;0.93;;
10082;SDS011;5080;48.528;8.078;2022-11-20T15:34:07;1.20;;;1.10;;